createdAt,value
2023-03-04T00:00:19.925Z,137.33
2023-03-04T00:00:51.669Z,136.67
2023-03-04T00:01:23.382Z,140.00
2023-03-04T00:01:55.190Z,141.67
2023-03-04T00:02:27.054Z,137.00
2023-03-04T00:02:58.872Z,133.00
2023-03-04T00:03:31.369Z,135.00
2023-03-04T00:04:03.238Z,141.33
2023-03-04T00:04:34.999Z,143.33
2023-03-04T00:05:07.389Z,144.67
2023-03-04T00:05:39.133Z,145.67
2023-03-04T00:06:10.946Z,146.00
2023-03-04T00:06:42.757Z,146.67
2023-03-04T00:07:16.981Z,149.00
2023-03-04T00:07:48.794Z,150.67
2023-03-04T00:08:20.761Z,153.00
2023-03-04T00:08:52.510Z,156.33
2023-03-04T00:09:24.282Z,159.67
2023-03-04T00:09:56.095Z,160.67
2023-03-04T00:10:27.789Z,163.00
2023-03-04T00:10:59.686Z,165.67
2023-03-04T00:11:34.091Z,166.67
2023-03-04T00:12:08.651Z,167.00
2023-03-04T00:12:40.400Z,167.00
2023-03-04T00:13:12.341Z,167.00
2023-03-04T00:13:44.079Z,167.00
2023-03-04T00:14:15.892Z,166.67
2023-03-04T00:14:47.677Z,166.00
2023-03-04T00:15:19.427Z,166.00
2023-03-04T00:15:52.003Z,166.00
2023-03-04T00:16:27.405Z,167.67
2023-03-04T00:16:59.252Z,194.33
2023-03-04T00:17:31.738Z,207.67
2023-03-04T00:18:04.057Z,214.00
2023-03-04T00:18:35.827Z,209.00
2023-03-04T00:19:07.601Z,209.67
2023-03-04T00:19:39.355Z,243.33
2023-03-04T00:20:12.019Z,281.67
2023-03-04T00:20:43.930Z,283.33
2023-03-04T00:21:15.852Z,276.33
2023-03-04T00:21:47.590Z,275.67
2023-03-04T00:22:19.342Z,283.00
2023-03-04T00:22:51.099Z,278.67
2023-03-04T00:23:23.045Z,263.00
2023-03-04T00:23:54.837Z,262.00
2023-03-04T00:24:26.563Z,269.67
2023-03-04T00:24:58.389Z,266.67
2023-03-04T00:25:30.344Z,250.67
2023-03-04T00:26:02.088Z,245.33
2023-03-04T00:26:33.847Z,240.67
2023-03-04T00:27:05.655Z,206.00
2023-03-04T00:27:37.473Z,170.67
2023-03-04T00:28:09.255Z,169.67
2023-03-04T00:28:41.047Z,190.33
2023-03-04T00:29:12.828Z,214.33
2023-03-04T00:29:44.591Z,227.67
2023-03-04T00:30:16.649Z,225.00
2023-03-04T00:30:48.483Z,212.67
2023-03-04T00:31:20.383Z,178.00
2023-03-04T00:31:52.355Z,159.67
2023-03-04T00:32:24.325Z,151.00
2023-03-04T00:32:56.078Z,127.33
2023-03-04T00:33:27.824Z,107.00
2023-03-04T00:33:59.546Z,98.67
2023-03-04T00:34:32.870Z,97.00
2023-03-04T00:35:07.103Z,123.00
2023-03-04T00:35:39.132Z,114.67
2023-03-04T00:36:11.234Z,106.00
2023-03-04T00:36:44.700Z,111.00
2023-03-04T00:37:16.491Z,112.33
2023-03-04T00:37:48.354Z,135.33
2023-03-04T00:38:20.158Z,142.67
2023-03-04T00:38:51.921Z,147.00
2023-03-04T00:39:23.646Z,148.00
2023-03-04T00:39:55.410Z,148.33
2023-03-04T00:40:27.896Z,148.33
2023-03-04T00:40:59.740Z,148.00
2023-03-04T00:41:31.526Z,150.00
2023-03-04T00:42:03.389Z,151.33
2023-03-04T00:42:35.314Z,152.67
2023-03-04T00:43:07.166Z,155.33
2023-03-04T00:43:38.964Z,157.00
2023-03-04T00:44:10.682Z,156.67
2023-03-04T00:44:42.488Z,152.33
2023-03-04T00:45:14.204Z,143.33
2023-03-04T00:45:46.082Z,141.00
2023-03-04T00:46:18.013Z,141.00
2023-03-04T00:46:49.831Z,132.00
2023-03-04T00:47:21.640Z,127.67
2023-03-04T00:47:53.412Z,132.33
2023-03-04T00:48:25.196Z,131.67
2023-03-04T00:48:56.899Z,105.67
2023-03-04T00:49:28.669Z,87.00
2023-03-04T00:50:00.532Z,120.00
2023-03-04T00:50:32.448Z,330.67
2023-03-04T00:51:04.603Z,369.33
2023-03-04T00:51:36.343Z,321.67
2023-03-04T00:52:08.072Z,313.33
2023-03-04T00:52:39.837Z,218.33
2023-03-04T00:53:11.551Z,138.67
2023-03-04T00:53:43.368Z,98.33
2023-03-04T00:54:15.047Z,83.33
2023-03-04T00:54:46.837Z,71.67
2023-03-04T00:55:18.726Z,54.67
2023-03-04T00:55:50.859Z,52.33
2023-03-04T00:56:22.686Z,61.00
2023-03-04T00:56:54.404Z,84.00
2023-03-04T00:57:26.121Z,146.33
2023-03-04T00:57:57.877Z,383.33
2023-03-04T00:58:29.610Z,419.00
2023-03-04T00:59:01.355Z,406.00
2023-03-04T00:59:33.215Z,372.67
2023-03-04T01:00:05.734Z,233.00
2023-03-04T01:00:37.539Z,184.33
2023-03-04T01:01:09.484Z,229.00
2023-03-04T01:01:41.476Z,292.33
2023-03-04T01:02:13.454Z,233.33
2023-03-04T01:02:45.256Z,133.33
2023-03-04T01:03:17.328Z,99.00
2023-03-04T01:03:49.173Z,151.33
2023-03-04T01:04:22.458Z,180.33
2023-03-04T01:04:54.268Z,130.67
2023-03-04T01:05:26.305Z,90.33
2023-03-04T01:05:58.333Z,68.00
2023-03-04T01:06:30.172Z,56.67
2023-03-04T01:07:02.325Z,45.67
2023-03-04T01:07:34.224Z,38.67
2023-03-04T01:08:06.785Z,44.67
2023-03-04T01:08:39.244Z,41.67
2023-03-04T01:09:10.930Z,47.00
2023-03-04T01:09:42.676Z,67.33
2023-03-04T01:10:15.669Z,163.67
2023-03-04T01:10:48.623Z,208.67
2023-03-04T01:11:20.379Z,140.67
2023-03-04T01:11:52.256Z,89.33
2023-03-04T01:12:23.987Z,51.67
2023-03-04T01:12:55.743Z,36.33
2023-03-04T01:13:27.472Z,32.67
2023-03-04T01:13:59.277Z,27.33
2023-03-04T01:14:31.134Z,29.00
2023-03-04T01:15:03.339Z,68.33
2023-03-04T01:15:35.217Z,90.00
2023-03-04T01:16:07.862Z,108.00
2023-03-04T01:16:39.666Z,121.00
2023-03-04T01:17:12.381Z,104.33
2023-03-04T01:17:44.560Z,79.33
2023-03-04T01:18:16.450Z,63.67
2023-03-04T01:18:48.304Z,55.67
2023-03-04T01:19:20.447Z,81.67
2023-03-04T01:19:52.455Z,89.33
2023-03-04T01:20:24.839Z,99.00
2023-03-04T01:20:57.011Z,103.00
2023-03-04T01:21:28.868Z,85.33
2023-03-04T01:22:00.635Z,59.67
2023-03-04T01:22:32.842Z,49.33
2023-03-04T01:23:04.695Z,50.67
2023-03-04T01:23:36.540Z,46.67
2023-03-04T01:24:08.420Z,44.67
2023-03-04T01:24:40.163Z,64.00
2023-03-04T01:25:12.074Z,60.00
2023-03-04T01:25:43.826Z,64.67
2023-03-04T01:26:15.635Z,64.33
2023-03-04T01:26:47.413Z,70.33
2023-03-04T01:27:19.305Z,79.67
2023-03-04T01:27:51.097Z,62.00
2023-03-04T01:28:23.325Z,44.67
2023-03-04T01:28:55.109Z,41.67
2023-03-04T01:29:28.659Z,41.00
2023-03-04T01:30:01.961Z,55.33
2023-03-04T01:30:34.043Z,58.33
2023-03-04T01:31:06.256Z,60.00
2023-03-04T01:31:38.137Z,65.33
2023-03-04T01:32:10.032Z,59.67
2023-03-04T01:32:41.961Z,48.33
2023-03-04T01:33:13.805Z,43.00
2023-03-04T01:33:45.567Z,33.67
2023-03-04T01:34:18.202Z,33.00
2023-03-04T01:34:49.955Z,42.00
2023-03-04T01:35:21.803Z,41.00
2023-03-04T01:35:53.633Z,36.33
2023-03-04T01:36:25.499Z,30.33
2023-03-04T01:36:57.597Z,24.33
2023-03-04T01:37:29.436Z,29.67
2023-03-04T01:38:01.348Z,29.67
2023-03-04T01:38:33.121Z,29.33
2023-03-04T01:39:05.658Z,37.33
2023-03-04T01:39:37.406Z,46.67
2023-03-04T01:40:10.223Z,42.67
2023-03-04T01:40:41.985Z,32.67
2023-03-04T01:41:14.439Z,25.00
2023-03-04T01:41:46.487Z,22.00
2023-03-04T01:42:22.536Z,19.67
2023-03-04T01:42:54.316Z,18.33
2023-03-04T01:43:29.150Z,21.67
2023-03-04T01:44:02.666Z,25.67
2023-03-04T01:44:34.530Z,28.00
2023-03-04T01:45:07.794Z,27.00
2023-03-04T01:45:40.433Z,28.67
2023-03-04T01:46:15.342Z,28.33
2023-03-04T01:46:53.933Z,24.33
2023-03-04T01:47:29.977Z,23.33
2023-03-04T01:48:01.917Z,22.00
2023-03-04T01:48:38.993Z,21.67
2023-03-04T01:49:15.793Z,23.33
2023-03-04T01:49:54.562Z,24.67
2023-03-04T01:50:28.686Z,24.33
2023-03-04T01:51:03.255Z,22.33
2023-03-04T01:51:35.084Z,20.00
2023-03-04T01:52:12.277Z,17.33
2023-03-04T01:52:44.117Z,17.00
2023-03-04T01:53:27.817Z,17.00
2023-03-04T01:53:59.637Z,17.00
2023-03-04T01:54:31.417Z,17.00
2023-03-04T01:55:06.717Z,16.67
2023-03-04T01:55:38.448Z,16.00
2023-03-04T01:56:23.433Z,16.00
2023-03-04T01:56:56.376Z,15.00
2023-03-04T01:57:28.162Z,15.00
2023-03-04T01:58:00.024Z,15.00
2023-03-04T01:58:32.991Z,15.00
2023-03-04T01:59:16.051Z,15.33
2023-03-04T02:00:22.242Z,16.00
2023-03-04T02:00:54.011Z,16.00
2023-03-04T02:01:25.846Z,17.00
2023-03-04T02:02:00.534Z,17.00
2023-03-04T02:02:32.292Z,17.00
2023-03-04T02:03:19.772Z,17.00
2023-03-04T02:03:51.690Z,17.00
2023-03-04T02:04:28.758Z,17.00
2023-03-04T02:05:00.577Z,17.00
2023-03-04T02:05:32.375Z,17.00
2023-03-04T02:06:04.422Z,17.00
2023-03-04T02:06:38.491Z,17.00
2023-03-04T02:07:10.499Z,17.00
2023-03-04T02:07:43.163Z,17.33
2023-03-04T02:08:17.800Z,18.00
2023-03-04T02:08:49.569Z,18.00
2023-03-04T02:09:21.866Z,18.33
2023-03-04T02:09:53.682Z,19.00
2023-03-04T02:10:25.981Z,19.00
2023-03-04T02:10:57.932Z,19.00
2023-03-04T02:11:29.751Z,19.00
2023-03-04T02:12:02.504Z,20.67
2023-03-04T02:12:34.469Z,24.00
2023-03-04T02:13:06.712Z,30.33
2023-03-04T02:13:38.578Z,31.67
2023-03-04T02:14:12.492Z,30.67
2023-03-04T02:14:44.386Z,30.00
2023-03-04T02:15:16.420Z,30.67
2023-03-04T02:15:50.037Z,31.00
2023-03-04T02:16:21.918Z,30.00
2023-03-04T02:16:54.143Z,29.67
2023-03-04T02:17:26.961Z,29.00
2023-03-04T02:17:59.127Z,29.00
2023-03-04T02:18:30.922Z,29.00
2023-03-04T02:19:07.948Z,29.00
2023-03-04T02:19:46.085Z,29.00
2023-03-04T02:20:32.461Z,29.00
2023-03-04T02:21:26.440Z,28.33
2023-03-04T02:21:58.252Z,27.00
2023-03-04T02:22:30.671Z,26.00
2023-03-04T02:23:02.313Z,25.33
2023-03-04T02:23:46.145Z,25.00
2023-03-04T02:24:40.947Z,24.00
2023-03-04T02:25:21.516Z,23.67
2023-03-04T02:26:03.719Z,23.00
2023-03-04T02:26:36.127Z,23.00
2023-03-04T02:27:08.304Z,22.67
2023-03-04T02:27:40.077Z,22.00
2023-03-04T02:28:11.832Z,21.00
2023-03-04T02:28:44.636Z,20.33
2023-03-04T02:29:17.376Z,19.67
2023-03-04T02:29:49.333Z,18.67
2023-03-04T02:30:25.473Z,18.00
2023-03-04T02:30:57.291Z,17.67
2023-03-04T02:31:36.607Z,17.00
2023-03-04T02:32:13.315Z,17.00
2023-03-04T02:32:45.099Z,17.00
2023-03-04T02:33:19.885Z,17.00
2023-03-04T02:33:54.015Z,17.00
2023-03-04T02:34:31.566Z,17.67
2023-03-04T02:35:03.612Z,22.00
2023-03-04T02:35:35.369Z,32.67
2023-03-04T02:36:07.504Z,31.00
2023-03-04T02:36:40.164Z,29.67
2023-03-04T02:37:12.124Z,28.33
2023-03-04T02:37:44.177Z,28.00
2023-03-04T02:38:15.993Z,28.00
2023-03-04T02:38:49.180Z,28.00
2023-03-04T02:39:21.045Z,27.67
2023-03-04T02:39:52.980Z,28.67
2023-03-04T02:40:31.521Z,28.00
2023-03-04T02:41:05.080Z,28.00
2023-03-04T02:41:37.259Z,27.33
2023-03-04T02:42:09.473Z,26.33
2023-03-04T02:42:44.254Z,24.67
2023-03-04T02:43:16.367Z,22.00
2023-03-04T02:43:52.247Z,19.00
2023-03-04T02:44:30.657Z,16.00
2023-03-04T02:45:02.505Z,13.33
2023-03-04T02:45:42.433Z,11.67
2023-03-04T02:46:14.286Z,10.33
2023-03-04T02:46:46.270Z,9.67
2023-03-04T02:47:19.229Z,9.00
2023-03-04T02:47:50.943Z,9.00
2023-03-04T02:48:24.432Z,9.00
2023-03-04T02:48:56.227Z,8.67
2023-03-04T02:49:31.801Z,9.00
2023-03-04T02:50:04.131Z,9.00
2023-03-04T02:50:44.267Z,8.67
2023-03-04T02:51:15.966Z,8.00
2023-03-04T02:51:52.831Z,8.00
2023-03-04T02:52:26.649Z,8.00
2023-03-04T02:52:58.426Z,8.00
2023-03-04T02:53:30.252Z,8.00
2023-03-04T02:54:01.979Z,8.00
2023-03-04T02:54:34.214Z,8.00
2023-03-04T02:55:06.516Z,8.00
2023-03-04T02:55:38.464Z,8.00
2023-03-04T02:56:10.303Z,9.00
2023-03-04T02:56:49.033Z,11.00
2023-03-04T02:57:20.786Z,19.33
2023-03-04T02:57:53.296Z,32.67
2023-03-04T02:58:25.091Z,44.33
2023-03-04T02:58:56.859Z,50.67
2023-03-04T02:59:29.609Z,53.00
2023-03-04T03:00:01.349Z,54.00
2023-03-04T03:00:33.120Z,59.33
2023-03-04T03:01:07.622Z,71.00
2023-03-04T03:01:39.371Z,75.00
2023-03-04T03:02:11.369Z,72.33
2023-03-04T03:02:43.136Z,70.33
2023-03-04T03:03:14.890Z,69.33
2023-03-04T03:03:46.587Z,63.33
2023-03-04T03:04:19.961Z,58.67
2023-03-04T03:04:51.788Z,67.00
2023-03-04T03:05:27.129Z,82.00
2023-03-04T03:05:58.955Z,92.33
2023-03-04T03:06:30.763Z,99.67
2023-03-04T03:07:02.506Z,96.33
2023-03-04T03:07:35.012Z,92.33
2023-03-04T03:08:07.447Z,100.00
2023-03-04T03:08:39.287Z,109.67
2023-03-04T03:09:11.170Z,116.67
2023-03-04T03:09:42.918Z,121.33
2023-03-04T03:10:14.873Z,124.67
2023-03-04T03:10:46.721Z,119.67
2023-03-04T03:11:18.554Z,118.33
2023-03-04T03:11:50.356Z,120.67
2023-03-04T03:12:22.091Z,121.33
2023-03-04T03:12:53.917Z,127.33
2023-03-04T03:13:25.749Z,125.33
2023-03-04T03:13:57.793Z,119.00
2023-03-04T03:14:29.694Z,119.33
2023-03-04T03:15:01.491Z,122.00
2023-03-04T03:15:33.338Z,124.00
2023-03-04T03:16:05.510Z,128.00
2023-03-04T03:16:37.359Z,132.00
2023-03-04T03:17:09.289Z,133.33
2023-03-04T03:17:41.358Z,137.00
2023-03-04T03:18:13.850Z,134.00
2023-03-04T03:18:45.651Z,160.00
2023-03-04T03:19:17.394Z,132.33
2023-03-04T03:19:49.191Z,97.00
2023-03-04T03:20:21.036Z,60.67
2023-03-04T03:20:52.813Z,75.67
2023-03-04T03:21:24.786Z,85.33
2023-03-04T03:21:56.594Z,111.00
2023-03-04T03:22:28.464Z,136.67
2023-03-04T03:23:00.220Z,129.67
2023-03-04T03:23:31.951Z,125.00
2023-03-04T03:24:03.866Z,123.00
2023-03-04T03:24:35.751Z,123.33
2023-03-04T03:25:08.921Z,129.00
2023-03-04T03:25:40.738Z,131.67
2023-03-04T03:26:12.477Z,132.00
2023-03-04T03:26:44.207Z,128.67
2023-03-04T03:27:16.028Z,126.67
2023-03-04T03:27:47.812Z,125.00
2023-03-04T03:28:19.591Z,120.67
2023-03-04T03:28:51.340Z,118.67
2023-03-04T03:29:23.097Z,118.00
2023-03-04T03:29:54.870Z,121.67
2023-03-04T03:30:28.351Z,131.00
2023-03-04T03:31:00.215Z,134.33
2023-03-04T03:31:32.072Z,132.67
2023-03-04T03:32:03.858Z,132.00
2023-03-04T03:32:35.754Z,130.33
2023-03-04T03:33:07.646Z,131.67
2023-03-04T03:33:39.417Z,132.33
2023-03-04T03:34:11.132Z,134.67
2023-03-04T03:34:43.000Z,145.67
2023-03-04T03:35:14.954Z,163.33
2023-03-04T03:35:46.775Z,174.00
2023-03-04T03:36:18.523Z,172.33
2023-03-04T03:36:50.309Z,183.33
2023-03-04T03:37:22.060Z,203.67
2023-03-04T03:37:53.951Z,185.00
2023-03-04T03:38:26.091Z,164.67
2023-03-04T03:38:57.901Z,157.67
2023-03-04T03:39:29.667Z,156.67
2023-03-04T03:40:01.511Z,155.00
2023-03-04T03:40:33.316Z,152.33
2023-03-04T03:41:05.353Z,159.33
2023-03-04T03:41:37.154Z,207.33
2023-03-04T03:42:09.025Z,211.33
2023-03-04T03:42:41.044Z,198.00
2023-03-04T03:43:12.934Z,177.00
2023-03-04T03:43:44.792Z,173.00
2023-03-04T03:44:16.597Z,174.33
2023-03-04T03:44:50.248Z,170.33
2023-03-04T03:45:22.008Z,168.00
2023-03-04T03:45:53.800Z,166.33
2023-03-04T03:46:25.737Z,165.33
2023-03-04T03:46:57.984Z,165.00
2023-03-04T03:47:29.761Z,165.00
2023-03-04T03:48:01.514Z,165.33
2023-03-04T03:48:33.242Z,166.00
2023-03-04T03:49:04.958Z,166.00
2023-03-04T03:49:36.755Z,168.00
2023-03-04T03:50:09.572Z,177.00
2023-03-04T03:50:41.292Z,186.00
2023-03-04T03:51:13.042Z,196.33
2023-03-04T03:51:44.846Z,183.67
2023-03-04T03:52:16.627Z,174.33
2023-03-04T03:52:48.385Z,160.67
2023-03-04T03:53:20.228Z,153.67
2023-03-04T03:53:52.014Z,154.33
2023-03-04T03:54:24.151Z,155.00
2023-03-04T03:54:56.011Z,155.67
2023-03-04T03:55:27.979Z,156.00
2023-03-04T03:55:59.703Z,154.67
2023-03-04T03:56:31.453Z,155.33
2023-03-04T03:57:03.315Z,156.00
2023-03-04T03:57:35.050Z,157.00
2023-03-04T03:58:06.850Z,157.33
2023-03-04T03:58:38.638Z,157.67
2023-03-04T03:59:10.466Z,158.00
2023-03-04T03:59:42.247Z,157.67
2023-03-04T04:00:14.973Z,154.67
2023-03-04T04:00:46.713Z,149.33
2023-03-04T04:01:18.517Z,143.00
2023-03-04T04:01:50.313Z,143.00
2023-03-04T04:02:22.633Z,141.00
2023-03-04T04:02:58.216Z,134.33
2023-03-04T04:03:31.031Z,128.33
2023-03-04T04:04:02.882Z,125.00
2023-03-04T04:04:34.686Z,118.67
2023-03-04T04:05:08.280Z,115.67
2023-03-04T04:05:40.134Z,121.00
2023-03-04T04:06:11.999Z,130.00
2023-03-04T04:06:43.762Z,132.00
2023-03-04T04:07:15.657Z,131.00
2023-03-04T04:07:47.463Z,126.67
2023-03-04T04:08:19.527Z,123.67
2023-03-04T04:08:51.391Z,122.33
2023-03-04T04:09:23.130Z,125.67
2023-03-04T04:09:54.883Z,127.67
2023-03-04T04:10:26.610Z,128.67
2023-03-04T04:10:58.399Z,129.67
2023-03-04T04:11:30.168Z,130.00
2023-03-04T04:12:02.144Z,131.00
2023-03-04T04:12:33.985Z,131.33
2023-03-04T04:13:05.826Z,132.00
2023-03-04T04:13:39.217Z,133.00
2023-03-04T04:14:13.428Z,132.67
2023-03-04T04:14:46.120Z,132.00
2023-03-04T04:15:17.934Z,131.67
2023-03-04T04:15:51.929Z,129.67
2023-03-04T04:16:23.770Z,123.00
2023-03-04T04:16:55.621Z,117.00
2023-03-04T04:17:27.397Z,116.00
2023-03-04T04:17:59.116Z,115.00
2023-03-04T04:18:30.831Z,113.67
2023-03-04T04:19:02.669Z,112.67
2023-03-04T04:19:34.650Z,109.33
2023-03-04T04:20:08.081Z,109.33
2023-03-04T04:20:39.921Z,112.00
2023-03-04T04:21:11.739Z,111.00
2023-03-04T04:21:43.489Z,109.33
2023-03-04T04:22:18.226Z,108.00
2023-03-04T04:22:49.950Z,105.00
2023-03-04T04:23:22.142Z,105.00
2023-03-04T04:23:53.848Z,103.67
2023-03-04T04:24:25.718Z,104.00
2023-03-04T04:24:57.453Z,104.00
2023-03-04T04:25:29.337Z,102.67
2023-03-04T04:26:01.148Z,103.00
2023-03-04T04:26:32.939Z,103.33
2023-03-04T04:27:04.852Z,103.67
2023-03-04T04:27:36.884Z,103.00
2023-03-04T04:28:08.768Z,103.33
2023-03-04T04:28:40.492Z,103.33
2023-03-04T04:29:14.561Z,104.00
2023-03-04T04:29:46.376Z,104.00
2023-03-04T04:30:18.411Z,104.00
2023-03-04T04:30:50.277Z,104.00
2023-03-04T04:31:22.015Z,104.00
2023-03-04T04:31:53.827Z,103.00
2023-03-04T04:32:25.583Z,102.33
2023-03-04T04:32:57.363Z,102.00
2023-03-04T04:33:29.225Z,102.67
2023-03-04T04:34:01.363Z,103.00
2023-03-04T04:34:33.506Z,103.00
2023-03-04T04:35:05.795Z,103.00
2023-03-04T04:35:39.032Z,103.00
2023-03-04T04:36:15.150Z,103.00
2023-03-04T04:36:47.021Z,103.00
2023-03-04T04:37:18.797Z,103.00
2023-03-04T04:37:50.553Z,103.00
2023-03-04T04:38:22.313Z,102.67
2023-03-04T04:38:54.150Z,102.00
2023-03-04T04:39:26.042Z,102.00
2023-03-04T04:39:57.770Z,102.00
2023-03-04T04:40:29.490Z,102.00
2023-03-04T04:41:01.295Z,102.00
2023-03-04T04:41:41.372Z,102.00
2023-03-04T04:42:13.286Z,102.00
2023-03-04T04:42:45.031Z,102.00
2023-03-04T04:43:16.824Z,101.33
2023-03-04T04:43:49.120Z,101.00
2023-03-04T04:44:20.887Z,101.00
2023-03-04T04:44:52.817Z,101.00
2023-03-04T04:45:24.970Z,101.00
2023-03-04T04:45:59.764Z,101.33
2023-03-04T04:46:31.861Z,102.67
2023-03-04T04:47:03.666Z,108.67
2023-03-04T04:47:35.435Z,142.67
2023-03-04T04:48:07.304Z,152.67
2023-03-04T04:48:39.018Z,131.33
2023-03-04T04:49:10.926Z,125.67
2023-03-04T04:49:42.712Z,124.00
2023-03-04T04:50:14.489Z,121.33
2023-03-04T04:50:46.574Z,117.67
2023-03-04T04:51:18.423Z,114.00
2023-03-04T04:51:50.161Z,112.33
2023-03-04T04:52:21.945Z,110.33
2023-03-04T04:52:53.735Z,108.67
2023-03-04T04:53:25.453Z,108.33
2023-03-04T04:53:58.473Z,108.33
2023-03-04T04:54:30.623Z,108.00
2023-03-04T04:55:03.055Z,108.00
2023-03-04T04:55:35.240Z,106.67
2023-03-04T04:56:19.484Z,105.33
2023-03-04T04:56:51.271Z,103.33
2023-03-04T04:57:23.039Z,102.00
2023-03-04T04:57:54.797Z,102.00
2023-03-04T04:58:26.864Z,101.67
2023-03-04T04:59:02.342Z,102.00
2023-03-04T04:59:34.138Z,101.67
2023-03-04T05:00:07.282Z,101.00
2023-03-04T05:00:39.038Z,100.00
2023-03-04T05:01:11.761Z,100.00
2023-03-04T05:01:43.942Z,100.67
2023-03-04T05:02:15.781Z,100.00
2023-03-04T05:02:47.882Z,100.67
2023-03-04T05:03:21.416Z,100.67
2023-03-04T05:03:55.503Z,101.00
2023-03-04T05:04:27.500Z,101.00
2023-03-04T05:04:59.239Z,101.00
2023-03-04T05:05:31.026Z,102.00
2023-03-04T05:06:04.541Z,102.00
2023-03-04T05:06:36.289Z,102.00
2023-03-04T05:07:08.160Z,102.00
2023-03-04T05:07:39.922Z,102.00
2023-03-04T05:08:11.687Z,102.00
2023-03-04T05:08:43.431Z,102.00
2023-03-04T05:09:15.181Z,102.00
2023-03-04T05:09:46.959Z,103.00
2023-03-04T05:10:18.926Z,103.00
2023-03-04T05:10:50.692Z,103.00
2023-03-04T05:11:22.840Z,103.00
2023-03-04T05:11:54.658Z,104.00
2023-03-04T05:12:26.464Z,104.00
2023-03-04T05:12:58.276Z,104.00
2023-03-04T05:13:30.113Z,104.33
2023-03-04T05:14:01.895Z,104.00
2023-03-04T05:14:33.732Z,105.00
2023-03-04T05:15:05.856Z,105.00
2023-03-04T05:15:39.270Z,105.00
2023-03-04T05:16:11.448Z,105.00
2023-03-04T05:16:43.289Z,105.00
2023-03-04T05:17:15.055Z,105.00
2023-03-04T05:17:46.946Z,105.33
2023-03-04T05:18:19.777Z,106.00
2023-03-04T05:18:51.534Z,106.00
2023-03-04T05:19:23.311Z,106.00
2023-03-04T05:19:55.092Z,106.33
2023-03-04T05:20:27.896Z,106.00
2023-03-04T05:21:01.819Z,106.00
2023-03-04T05:21:33.641Z,104.67
2023-03-04T05:22:05.366Z,102.00
2023-03-04T05:22:37.154Z,100.00
2023-03-04T05:23:08.893Z,99.00
2023-03-04T05:23:42.746Z,98.00
2023-03-04T05:24:14.570Z,95.33
2023-03-04T05:24:46.380Z,95.00
2023-03-04T05:25:18.168Z,95.00
2023-03-04T05:25:50.250Z,94.00
2023-03-04T05:26:22.180Z,94.00
2023-03-04T05:26:54.201Z,94.00
2023-03-04T05:27:25.958Z,93.67
2023-03-04T05:27:57.709Z,93.33
2023-03-04T05:28:29.901Z,93.00
2023-03-04T05:29:01.613Z,93.00
2023-03-04T05:29:33.358Z,93.00
2023-03-04T05:30:05.719Z,93.33
2023-03-04T05:30:37.448Z,94.00
2023-03-04T05:31:10.223Z,94.00
2023-03-04T05:31:41.981Z,94.00
2023-03-04T05:32:14.182Z,94.00
2023-03-04T05:32:45.999Z,94.00
2023-03-04T05:33:19.000Z,94.67
2023-03-04T05:33:50.778Z,99.67
2023-03-04T05:34:22.577Z,107.33
2023-03-04T05:34:54.377Z,111.00
2023-03-04T05:35:28.558Z,110.67
2023-03-04T05:36:01.299Z,110.00
2023-03-04T05:36:33.464Z,109.00
2023-03-04T05:37:05.253Z,109.33
2023-03-04T05:37:37.748Z,108.67
2023-03-04T05:38:12.513Z,107.67
2023-03-04T05:38:44.344Z,106.33
2023-03-04T05:39:16.171Z,105.33
2023-03-04T05:39:47.934Z,105.00
2023-03-04T05:40:19.763Z,105.00
2023-03-04T05:40:58.497Z,107.33
2023-03-04T05:41:30.231Z,111.00
2023-03-04T05:42:02.243Z,111.33
2023-03-04T05:42:34.070Z,111.00
2023-03-04T05:43:06.244Z,110.33
2023-03-04T05:43:42.863Z,110.00
2023-03-04T05:44:14.732Z,109.33
2023-03-04T05:44:46.509Z,109.00
2023-03-04T05:45:18.471Z,109.00
2023-03-04T05:45:50.644Z,109.00
2023-03-04T05:46:25.909Z,108.00
2023-03-04T05:46:57.777Z,107.00
2023-03-04T05:47:29.539Z,106.33
2023-03-04T05:48:02.515Z,106.00
2023-03-04T05:48:34.301Z,106.00
2023-03-04T05:49:06.094Z,106.00
2023-03-04T05:49:37.873Z,106.67
2023-03-04T05:50:10.578Z,109.67
2023-03-04T05:50:42.364Z,109.33
2023-03-04T05:51:14.112Z,109.00
2023-03-04T05:51:47.072Z,109.00
2023-03-04T05:52:18.819Z,109.00
2023-03-04T05:52:50.952Z,108.33
2023-03-04T05:53:23.037Z,107.00
2023-03-04T05:53:54.876Z,107.33
2023-03-04T05:54:26.715Z,110.00
2023-03-04T05:54:58.453Z,111.67
2023-03-04T05:55:30.274Z,111.00
2023-03-04T05:56:07.413Z,111.00
2023-03-04T05:56:39.249Z,110.67
2023-03-04T05:57:11.161Z,110.00
2023-03-04T05:57:44.029Z,109.67
2023-03-04T05:58:17.404Z,108.67
2023-03-04T05:58:49.194Z,107.33
2023-03-04T05:59:21.024Z,106.33
2023-03-04T05:59:52.844Z,105.00
2023-03-04T06:00:25.767Z,105.00
2023-03-04T06:01:01.215Z,105.00
2023-03-04T06:01:33.070Z,105.00
2023-03-04T06:02:04.825Z,106.00
2023-03-04T06:02:37.757Z,106.00
2023-03-04T06:03:15.897Z,105.33
2023-03-04T06:03:49.360Z,103.33
2023-03-04T06:04:21.116Z,102.33
2023-03-04T06:04:52.879Z,101.00
2023-03-04T06:05:24.623Z,100.67
2023-03-04T06:05:56.949Z,101.00
2023-03-04T06:06:28.988Z,101.33
2023-03-04T06:07:00.991Z,102.00
2023-03-04T06:07:32.845Z,103.00
2023-03-04T06:08:04.894Z,103.00
2023-03-04T06:08:37.155Z,102.33
2023-03-04T06:09:10.598Z,102.00
2023-03-04T06:09:45.291Z,104.00
2023-03-04T06:10:18.709Z,128.67
2023-03-04T06:10:54.254Z,150.00
2023-03-04T06:11:26.102Z,160.33
2023-03-04T06:11:57.974Z,161.00
2023-03-04T06:12:29.917Z,193.67
2023-03-04T06:13:01.746Z,220.00
2023-03-04T06:13:34.193Z,201.00
2023-03-04T06:14:06.244Z,170.67
2023-03-04T06:14:38.016Z,159.67
2023-03-04T06:15:10.962Z,151.33
2023-03-04T06:15:42.784Z,148.67
2023-03-04T06:16:14.729Z,145.67
2023-03-04T06:16:46.585Z,142.33
2023-03-04T06:17:18.364Z,142.00
2023-03-04T06:17:50.289Z,141.33
2023-03-04T06:18:22.756Z,137.67
2023-03-04T06:18:54.614Z,125.00
2023-03-04T06:19:26.390Z,114.33
2023-03-04T06:19:58.123Z,108.67
2023-03-04T06:20:30.500Z,107.67
2023-03-04T06:21:03.619Z,105.67
2023-03-04T06:21:35.465Z,103.33
2023-03-04T06:22:08.548Z,101.67
2023-03-04T06:22:40.610Z,99.67
2023-03-04T06:23:12.346Z,98.00
2023-03-04T06:23:45.313Z,107.67
2023-03-04T06:24:17.210Z,159.33
2023-03-04T06:24:49.002Z,161.67
2023-03-04T06:25:24.863Z,144.00
2023-03-04T06:25:59.555Z,140.67
2023-03-04T06:26:31.511Z,139.33
2023-03-04T06:27:04.054Z,138.00
2023-03-04T06:27:36.237Z,137.00
2023-03-04T06:28:08.058Z,132.67
2023-03-04T06:28:39.816Z,121.00
2023-03-04T06:29:11.656Z,113.00
2023-03-04T06:29:43.487Z,109.00
2023-03-04T06:30:15.360Z,108.33
2023-03-04T06:30:47.146Z,109.67
2023-03-04T06:31:18.947Z,111.00
2023-03-04T06:31:50.879Z,111.67
2023-03-04T06:32:22.811Z,112.67
2023-03-04T06:32:54.568Z,115.67
2023-03-04T06:33:26.798Z,121.00
2023-03-04T06:33:58.508Z,119.33
2023-03-04T06:34:30.233Z,115.67
2023-03-04T06:35:02.052Z,115.00
2023-03-04T06:35:33.893Z,114.67
2023-03-04T06:36:06.179Z,112.33
2023-03-04T06:36:38.079Z,111.00
2023-03-04T06:37:09.820Z,109.33
2023-03-04T06:37:41.819Z,109.00
2023-03-04T06:38:13.764Z,109.33
2023-03-04T06:38:45.819Z,109.00
2023-03-04T06:39:17.675Z,109.00
2023-03-04T06:39:49.528Z,110.00
2023-03-04T06:40:21.364Z,110.00
2023-03-04T06:40:55.998Z,110.00
2023-03-04T06:41:28.910Z,110.00
2023-03-04T06:42:00.858Z,110.00
2023-03-04T06:42:32.714Z,110.67
2023-03-04T06:43:04.687Z,118.67
2023-03-04T06:43:37.102Z,141.33
2023-03-04T06:44:09.055Z,146.33
2023-03-04T06:44:40.960Z,143.33
2023-03-04T06:45:12.915Z,142.33
2023-03-04T06:45:44.730Z,144.00
2023-03-04T06:46:16.526Z,154.00
2023-03-04T06:46:48.341Z,167.00
2023-03-04T06:47:20.291Z,162.33
2023-03-04T06:47:52.014Z,151.67
2023-03-04T06:48:23.790Z,149.00
2023-03-04T06:48:55.572Z,145.33
2023-03-04T06:49:27.767Z,144.33
2023-03-04T06:49:59.510Z,143.33
2023-03-04T06:50:31.247Z,141.00
2023-03-04T06:51:10.316Z,138.00